Time;durP1;ratioP1;P1;durP2;ratioP2;P2;SDS_P1;SDS_P2;PMS_P1;PMS_P2;Temp;Humidity;BMP_temperature;BMP_pressure;BME280_temperature;BME280_humidity;BME280_pressure;Samples;Min_cycle;Max_cycle;Signal;HPM_P1;HPM_P2
2021/04/17 00:00:09;;;;;;;13.50;6.63;;;9.90;99.90;;;10.14;56.78;102735.47;5074557;28;20055;-72
2021/04/17 00:02:39;;;;;;;9.45;6.85;;;9.90;99.90;;;10.17;57.36;102740.84;5074489;28;20135;-72
2021/04/17 00:05:12;;;;;;;10.15;6.60;;;9.90;99.90;;;10.15;57.33;102738.16;5074285;28;20049;-72
2021/04/17 00:07:40;;;;;;;9.32;6.55;;;9.90;99.90;;;9.99;57.53;102733.25;5074278;28;20048;-72
2021/04/17 00:10:10;;;;;;;10.43;6.68;;;9.70;99.90;;;9.91;57.81;102729.53;5073996;28;20070;-72
2021/04/17 00:12:40;;;;;;;8.82;6.70;;;9.70;99.90;;;9.89;57.64;102734.75;5073888;28;20055;-72
2021/04/17 00:15:09;;;;;;;13.77;6.72;;;9.70;99.90;;;9.87;57.88;102731.16;5073768;28;20044;-72
2021/04/17 00:17:36;;;;;;;8.32;6.43;;;9.70;99.90;;;9.87;57.59;102733.81;5072703;28;20117;-72
2021/04/17 00:20:06;;;;;;;16.67;7.97;;;9.60;99.90;;;9.79;57.42;102706.25;5073865;28;20051;-72
2021/04/17 00:22:33;;;;;;;10.33;7.23;;;9.70;99.90;;;9.93;57.31;102733.97;5073799;28;20098;-72
2021/04/17 00:25:02;;;;;;;12.07;6.93;;;9.70;99.90;;;9.87;57.81;102732.94;5089271;28;20048;-72
2021/04/17 00:27:29;;;;;;;11.00;7.28;;;9.70;99.90;;;9.90;57.38;102733.00;5072638;28;20074;-72
2021/04/17 00:29:57;;;;;;;15.00;6.47;;;9.60;99.90;;;9.89;57.47;102737.38;5073818;28;20048;-72
2021/04/17 00:32:25;;;;;;;10.10;6.90;;;9.70;99.90;;;9.84;57.34;102733.72;5072503;28;20105;-72
2021/04/17 00:34:53;;;;;;;9.57;7.40;;;9.60;99.90;;;9.87;57.43;102730.28;5073691;28;20049;-71
2021/04/17 00:37:23;;;;;;;10.27;7.15;;;9.60;99.90;;;9.67;57.79;102745.56;5073381;28;20075;-72
2021/04/17 00:39:54;;;;;;;10.10;7.43;;;9.60;99.90;;;9.71;57.69;102728.94;5072447;28;20082;-71
2021/04/17 00:42:22;;;;;;;10.90;6.70;;;9.50;99.90;;;9.76;57.46;102731.72;5073422;28;20097;-72
2021/04/17 00:44:54;;;;;;;9.50;6.63;;;9.50;99.90;;;9.78;57.52;102738.84;5089102;28;20610;-72
2021/04/17 00:47:25;;;;;;;8.00;6.28;;;9.50;99.90;;;9.56;57.95;102683.56;5073485;28;20101;-72
2021/04/17 00:50:01;;;;;;;14.38;6.55;;;9.50;99.90;;;9.84;57.31;102727.53;5071915;28;20045;-72
2021/04/17 00:52:31;;;;;;;9.90;6.55;;;9.60;99.90;;;9.80;57.60;102733.59;5089038;28;20080;-72
2021/04/17 00:54:59;;;;;;;;;;;9.60;99.90;;;9.82;57.35;102732.78;5089352;28;20570;-71
2021/04/17 00:57:27;;;;;;;9.25;6.88;;;9.60;99.90;;;9.79;57.53;102724.75;5073212;28;19920;-72
2021/04/17 00:59:55;;;;;;;12.85;7.00;;;9.60;99.90;;;9.84;57.26;102728.44;5073072;28;20044;-71
2021/04/17 01:02:29;;;;;;;11.98;7.57;;;9.60;99.90;;;9.68;57.01;102723.56;5072995;28;20069;-72
2021/04/17 01:05:00;;;;;;;8.75;7.13;;;9.50;99.90;;;9.76;57.79;102724.69;5073120;28;20458;-72
2021/04/17 01:07:33;;;;;;;8.52;6.32;;;9.50;99.90;;;8.79;57.62;102572.13;5073220;28;20044;-72
2021/04/17 01:10:07;;;;;;;11.70;6.35;;;9.50;99.90;;;9.61;57.81;102726.00;5072971;28;20415;-71
2021/04/17 01:12:44;;;;;;;9.00;6.75;;;9.40;99.90;;;9.65;57.75;102722.59;5088604;28;20044;-72
2021/04/17 01:15:14;;;;;;;13.45;6.93;;;9.40;99.90;;;9.59;58.11;102738.25;5073138;28;20044;-72
2021/04/17 01:17:44;;;;;;;9.77;7.28;;;9.40;99.90;;;9.56;58.05;102717.91;5073078;28;20041;-72
2021/04/17 01:20:19;;;;;;;9.77;7.05;;;9.30;99.90;;;9.54;58.02;102721.38;5072845;28;20051;-72
2021/04/17 01:23:01;;;;;;;7.88;6.70;;;9.30;99.90;;;9.61;58.29;102712.78;5072791;28;20044;-71
2021/04/17 01:25:37;;;;;;;11.45;6.35;;;9.40;99.90;;;9.61;58.53;102710.13;5072658;28;20411;-72
2021/04/17 01:28:07;;;;;;;14.02;6.25;;;9.40;99.90;;;9.52;58.08;102716.06;5088652;28;20582;-72
2021/04/17 01:30:35;;;;;;;8.00;5.90;;;9.30;99.90;;;9.52;58.51;102709.88;5072722;28;20049;-71
2021/04/17 01:33:02;;;;;;;14.25;6.88;;;9.30;99.90;;;9.51;58.53;102706.34;5071343;28;20059;-71
2021/04/17 01:35:30;;;;;;;10.73;6.88;;;9.30;99.90;;;9.46;58.69;102707.94;5072580;28;20047;-71
2021/04/17 01:38:22;;;;;;;12.25;6.75;;;9.20;99.90;;;9.46;59.22;102710.59;5087938;28;20098;-72
2021/04/17 01:40:58;;;;;;;8.40;6.72;;;9.20;99.90;;;9.44;59.16;102706.09;5071395;28;20056;-71
2021/04/17 01:43:29;;;;;;;9.88;6.63;;;9.20;99.90;;;9.41;59.30;102687.50;5072075;28;20541;-71
2021/04/17 01:46:05;;;;;;;8.93;6.88;;;9.30;99.90;;;9.42;59.39;102700.78;5072580;28;20051;-71
2021/04/17 01:48:33;;;;;;;8.95;7.07;;;9.20;99.90;;;9.47;59.49;102704.44;5088260;28;20054;-72
2021/04/17 01:51:05;;;;;;;8.48;7.18;;;9.20;99.90;;;9.39;59.68;102703.31;5072483;28;20052;-71
2021/04/17 01:53:33;;;;;;;9.07;6.80;;;9.20;99.90;;;9.40;59.66;102705.13;5072444;28;20053;-71
2021/04/17 01:56:02;;;;;;;10.18;7.25;;;9.20;99.90;;;9.48;59.70;102708.00;5072400;28;20495;-72
2021/04/17 01:58:36;;;;;;;11.23;7.00;;;9.20;99.90;;;9.45;59.96;102699.97;5071154;28;20469;-71
2021/04/17 02:01:06;;;;;;;10.70;7.93;;;9.20;99.90;;;9.42;59.92;102705.16;5072629;28;20122;-71
2021/04/17 02:03:36;;;;;;;10.55;7.00;;;9.20;99.90;;;9.44;60.12;102706.09;5072374;28;20048;-72
2021/04/17 02:06:04;;;;;;;10.57;6.88;;;9.20;99.90;;;9.46;60.63;102700.03;5072363;28;20075;-71
2021/04/17 02:08:35;;;;;;;11.77;7.45;;;9.20;99.90;;;9.41;60.42;102717.47;5072458;28;20044;-71
2021/04/17 02:11:06;;;;;;;8.60;6.90;;;9.20;99.90;;;9.42;60.41;102715.72;5072272;28;20068;-71
2021/04/17 02:13:36;;;;;;;12.40;7.18;;;9.20;99.90;;;9.29;60.30;102681.88;5072243;28;20040;-71
2021/04/17 02:16:08;;;;;;;12.27;7.30;;;9.20;99.90;;;9.32;60.54;102687.25;5072381;28;20465;-71
2021/04/17 02:18:49;;;;;;;10.50;7.15;;;9.20;99.90;;;9.46;60.55;102707.06;5072216;28;20077;-71
2021/04/17 02:21:26;;;;;;;11.00;7.70;;;9.20;99.90;;;9.46;60.44;102705.31;5072508;28;20049;-71
2021/04/17 02:23:54;;;;;;;10.10;7.00;;;9.20;99.90;;;9.39;60.70;102703.31;5072146;28;20491;-71
2021/04/17 02:26:22;;;;;;;10.05;8.15;;;9.20;99.90;;;9.38;60.63;102712.09;5072392;28;20045;-72
2021/04/17 02:28:50;;;;;;;14.05;7.43;;;9.10;99.90;;;9.43;61.38;102701.66;5072397;28;20037;-71
2021/04/17 02:31:17;;;;;;;8.40;6.85;;;9.10;99.90;;;9.52;60.78;102701.94;5072213;28;20044;-71
2021/04/17 02:33:45;;;;;;;12.20;7.72;;;9.20;99.90;;;9.45;61.25;102698.22;5072085;28;20094;-72
2021/04/17 02:36:13;;;;;;;13.63;8.07;;;9.20;99.90;;;9.49;61.22;102697.47;5071960;28;20075;-71
2021/04/17 02:38:42;;;;;;;11.35;7.85;;;9.20;99.90;;;9.39;61.77;102691.88;5070914;28;20052;-71
2021/04/17 02:41:10;;;;;;;10.60;7.22;;;9.20;99.90;;;9.35;61.86;102682.06;5072117;28;20049;-71
2021/04/17 02:43:39;;;;;;;10.52;7.22;;;9.10;99.90;;;9.35;61.95;102688.22;5071935;28;20071;-72
2021/04/17 02:46:06;;;;;;;11.75;8.00;;;9.10;99.90;;;9.28;61.97;102682.72;5071951;28;20446;-71
2021/04/17 02:48:34;;;;;;;12.93;8.00;;;9.10;99.90;;;9.35;62.05;102680.31;5071883;28;20052;-71
2021/04/17 02:51:02;;;;;;;10.70;7.22;;;9.10;99.90;;;9.25;62.21;102678.28;5087500;28;20052;-71
2021/04/17 02:53:30;;;;;;;12.23;7.43;;;9.00;99.90;;;9.27;62.37;102681.81;5072076;28;20047;-71
2021/04/17 02:56:00;;;;;;;10.23;7.68;;;9.00;99.90;;;9.19;62.32;102696.56;5073556;28;20055;-71
2021/04/17 02:58:28;;;;;;;12.95;7.65;;;8.90;99.90;;;9.24;62.85;102688.75;5075620;28;20048;-72
2021/04/17 03:01:05;;;;;;;11.90;7.70;;;8.90;99.90;;;9.21;62.22;102694.88;5075452;28;20146;-72
2021/04/17 03:03:32;;;;;;;11.95;7.15;;;8.90;99.90;;;9.18;62.44;102692.13;5075223;28;20392;-71
2021/04/17 03:06:00;;;;;;;13.90;7.90;;;8.90;99.90;;;9.26;62.24;102684.44;5074242;28;20511;-71
2021/04/17 03:08:27;;;;;;;12.73;8.27;;;9.00;99.90;;;9.19;62.75;102690.38;5075506;28;20127;-72
2021/04/17 03:10:54;;;;;;;13.88;7.72;;;8.90;99.90;;;9.18;62.39;102688.56;5075363;28;20040;-71
2021/04/17 03:13:22;;;;;;;10.60;7.80;;;8.90;99.90;;;8.98;62.88;102653.69;5075141;28;20056;-72
2021/04/17 03:15:52;;;;;;;10.82;7.97;;;8.90;99.90;;;9.07;63.23;102694.44;5075096;28;20388;-71
2021/04/17 03:18:21;;;;;;;;;;;8.80;99.90;;;9.05;63.20;102682.94;5075876;28;20048;-71
2021/04/17 03:20:49;;;;;;;11.48;8.23;;;8.80;99.90;;;9.09;63.48;102683.94;5074958;28;19927;-71
2021/04/17 03:23:17;;;;;;;9.82;8.10;;;8.80;99.90;;;8.98;63.17;102680.94;5073771;28;20036;-71
2021/04/17 03:25:45;;;;;;;12.20;7.75;;;8.80;99.90;;;9.04;64.00;102678.50;5075040;28;20052;-71
2021/04/17 03:28:14;;;;;;;9.55;7.13;;;8.80;99.90;;;8.94;64.06;102676.41;5090500;28;20053;-71
2021/04/17 03:30:46;;;;;;;10.23;7.15;;;8.70;99.90;;;9.07;63.75;102678.59;5073787;28;20126;-71
2021/04/17 03:33:14;;;;;;;9.20;7.70;;;8.80;99.90;;;8.99;64.05;102682.75;5075064;28;20056;-71
2021/04/17 03:35:42;;;;;;;12.52;8.30;;;8.80;99.90;;;9.01;64.35;102680.16;5074992;28;20084;-71
2021/04/17 03:38:13;;;;;;;10.55;7.90;;;8.70;99.90;;;9.05;64.49;102679.41;5074815;28;20445;-71
2021/04/17 03:40:40;;;;;;;11.20;7.72;;;8.80;99.90;;;8.98;64.51;102680.94;5074696;28;20507;-72
2021/04/17 03:43:08;;;;;;;14.50;8.40;;;8.80;99.90;;;8.68;64.45;102635.13;5074516;28;20044;-71
2021/04/17 03:45:35;;;;;;;14.02;7.60;;;8.80;99.90;;;9.04;64.93;102685.50;5074796;28;20045;-71
2021/04/17 03:48:06;;;;;;;13.80;8.18;;;8.80;99.90;;;8.98;65.19;102682.72;5074553;28;20453;-72
2021/04/17 03:50:34;;;;;;;12.82;7.78;;;8.70;99.90;;;8.92;65.04;102677.22;5074568;28;20059;-71
2021/04/17 03:53:02;;;;;;;11.50;8.52;;;8.70;99.90;;;8.93;64.67;102682.56;5074382;28;20063;-71
2021/04/17 03:55:30;;;;;;;11.77;7.95;;;8.70;99.90;;;8.91;65.17;102686.88;5074196;28;20052;-71
2021/04/17 03:57:57;;;;;;;13.73;8.68;;;8.70;99.90;;;8.96;65.52;102684.41;5074637;28;20063;-71
2021/04/17 04:00:25;;;;;;;12.15;7.88;;;8.70;99.90;;;8.93;65.49;102677.28;5074493;28;20119;-71
2021/04/17 04:02:55;;;;;;;12.55;8.00;;;8.70;99.90;;;8.99;65.36;102668.66;5074315;28;20404;-71
2021/04/17 04:05:23;;;;;;;13.00;8.30;;;8.70;99.90;;;8.95;65.32;102678.22;5073032;28;20056;-71
2021/04/17 04:07:50;;;;;;;11.75;8.68;;;8.70;99.90;;;8.89;65.61;102679.75;5072487;28;20048;-71
2021/04/17 04:10:19;;;;;;;13.63;8.10;;;8.70;99.90;;;8.91;65.84;102678.97;5074278;28;20098;-72
2021/04/17 04:12:46;;;;;;;10.23;7.38;;;8.70;99.90;;;8.84;65.69;102678.72;5072893;28;20055;-71
2021/04/17 04:15:15;;;;;;;12.30;7.47;;;8.60;99.90;;;8.87;66.10;102681.47;5074159;28;20052;-71
2021/04/17 04:17:45;;;;;;;11.77;7.28;;;8.60;99.90;;;8.77;66.06;102660.91;5074252;28;20048;-71
2021/04/17 04:20:14;;;;;;;12.95;8.02;;;8.60;99.90;;;8.88;65.97;102692.06;5089642;28;20068;-71
2021/04/17 04:22:44;;;;;;;15.18;8.25;;;8.60;99.90;;;8.90;66.22;102687.72;5089253;28;20052;-71
2021/04/17 04:25:15;;;;;;;16.33;8.68;;;8.60;99.90;;;8.85;65.91;102691.06;5074128;28;20049;-71
2021/04/17 04:27:46;;;;;;;11.73;7.50;;;8.60;99.90;;;8.87;66.47;102686.72;5072657;28;20057;-72
2021/04/17 04:30:14;;;;;;;14.32;8.10;;;8.60;99.90;;;8.90;66.40;102687.72;5073740;28;20048;-71
2021/04/17 04:32:45;;;;;;;11.68;7.57;;;8.60;99.90;;;8.78;66.22;102668.88;5073675;28;20051;-71
2021/04/17 04:35:18;;;;;;;13.65;8.23;;;8.60;99.90;;;8.86;66.97;102687.59;5073454;28;20052;-71
2021/04/17 04:37:46;;;;;;;10.38;8.02;;;8.50;99.90;;;8.78;66.45;102679.44;5073726;28;20066;-71
2021/04/17 04:40:14;;;;;;;15.52;8.15;;;8.50;99.90;;;8.96;66.49;102713.44;5089155;28;20048;-71
2021/04/17 04:42:41;;;;;;;12.70;7.60;;;8.70;99.90;;;8.95;66.85;102698.44;5073228;28;20052;-71
2021/04/17 04:45:12;;;;;;;15.35;8.32;;;8.70;99.90;;;8.97;66.74;102691.47;5073177;28;20454;-71
2021/04/17 04:47:42;;;;;;;14.38;7.80;;;8.70;99.90;;;8.89;67.11;102687.69;5072027;28;20384;-71
2021/04/17 04:50:13;;;;;;;15.32;8.75;;;8.70;99.90;;;8.90;66.66;102689.50;5073238;28;20495;-71
2021/04/17 04:52:43;;;;;;;14.98;8.23;;;8.70;99.90;;;8.12;67.08;102559.47;5089091;28;20041;-71
2021/04/17 04:55:12;;;;;;;12.00;8.43;;;8.60;99.90;;;8.57;67.04;102647.09;5073246;28;20049;-71
2021/04/17 04:57:39;;;;;;;14.45;8.13;;;8.60;99.90;;;8.93;66.75;102685.19;5073143;28;20098;-71
2021/04/17 05:00:10;;;;;;;14.10;9.13;;;8.60;99.90;;;8.92;67.43;102678.09;5071819;28;20056;-72
2021/04/17 05:02:40;;;;;;;12.73;8.10;;;8.70;99.90;;;8.86;66.90;102684.97;5073108;28;20049;-71
2021/04/17 05:05:08;;;;;;;15.70;9.18;;;8.70;99.90;;;8.90;67.10;102690.34;5073434;28;20084;-71
2021/04/17 05:07:36;;;;;;;16.80;9.63;;;8.70;99.90;;;8.97;67.33;102688.81;5073145;28;20044;-71
2021/04/17 05:10:04;;;;;;;17.38;9.10;;;8.70;99.90;;;8.78;67.23;102649.50;5073038;28;20049;-72
2021/04/17 05:12:32;;;;;;;17.13;9.85;;;8.70;99.90;;;9.06;66.82;102675.91;5072747;28;20458;-71
2021/04/17 05:14:59;;;;;;;14.85;8.90;;;8.80;99.90;;;9.14;67.10;102687.59;5073080;28;20070;-72
2021/04/17 05:17:28;;;;;;;17.08;9.70;;;8.90;99.90;;;9.24;66.32;102688.75;5072532;28;20495;-71
2021/04/17 05:19:56;;;;;;;17.88;9.85;;;9.00;99.90;;;9.33;66.27;102687.28;5087564;28;20044;-71
2021/04/17 05:22:24;;;;;;;17.20;10.23;;;9.10;99.90;;;9.44;65.89;102693.81;5072962;28;20106;-71
2021/04/17 05:24:51;;;;;;;19.50;10.63;;;9.10;99.90;;;9.55;65.59;102700.28;5072635;28;20055;-71
2021/04/17 05:27:19;;;;;;;14.80;9.30;;;9.30;99.90;;;9.70;65.81;102690.16;5072660;28;20075;-71
2021/04/17 05:29:48;;;;;;;18.20;10.05;;;9.40;99.90;;;9.75;65.71;102701.75;5072903;28;20067;-71
2021/04/17 05:32:15;;;;;;;15.75;9.98;;;9.40;99.90;;;9.82;65.57;102692.25;5072817;28;20048;-71
2021/04/17 05:34:44;;;;;;;17.25;10.75;;;9.60;99.90;;;9.97;65.12;102695.31;5071638;28;20060;-71
2021/04/17 05:37:12;;;;;;;16.80;10.43;;;9.70;99.90;;;10.07;64.57;102689.41;5072669;28;20107;-71
2021/04/17 05:39:40;;;;;;;18.75;10.43;;;9.80;99.90;;;10.11;64.89;102687.78;5088060;28;20044;-71
2021/04/17 05:42:08;;;;;;;17.70;10.75;;;9.90;99.90;;;10.22;64.57;102691.63;5072692;28;20048;-72
2021/04/17 05:44:36;;;;;;;20.13;10.75;;;9.90;99.90;;;10.38;64.01;102699.06;5072415;28;20044;-72
2021/04/17 05:47:03;;;;;;;18.95;10.77;;;10.10;99.90;;;10.37;63.68;102681.44;5071297;28;20087;-72
2021/04/17 05:49:31;;;;;;;23.42;9.68;;;10.20;99.90;;;10.66;63.43;102683.06;5071198;28;20072;-72
2021/04/17 05:52:00;;;;;;;21.20;9.82;;;10.40;99.90;;;11.04;62.44;102702.47;5072390;28;20048;-73
2021/04/17 05:54:27;;;;;;;15.88;9.80;;;10.70;99.90;;;11.11;61.88;102692.03;5072305;28;20102;-72
2021/04/17 05:56:55;;;;;;;13.57;9.05;;;10.80;99.90;;;11.26;61.68;102697.72;5070842;28;20057;-72
2021/04/17 05:59:22;;;;;;;14.52;8.77;;;10.90;99.90;;;11.33;61.01;102694.31;5072734;28;20059;-73
2021/04/17 06:01:49;;;;;;;17.88;9.32;;;11.00;99.90;;;11.49;60.58;102691.16;5072425;28;20055;-72
2021/04/17 06:04:17;;;;;;;18.95;9.07;;;11.20;99.90;;;11.56;60.61;102685.09;5072243;28;20040;-72
2021/04/17 06:06:45;;;;;;;17.80;8.90;;;11.40;99.90;;;11.86;59.93;102706.09;5072211;28;20052;-72
2021/04/17 06:09:13;;;;;;;18.85;8.80;;;11.50;99.90;;;12.07;59.48;102706.50;5072271;28;20503;-72
2021/04/17 06:11:41;;;;;;;15.55;7.97;;;11.70;99.90;;;12.13;59.11;102708.38;5072333;28;20048;-72
2021/04/17 06:14:09;;;;;;;20.38;8.25;;;11.80;99.90;;;12.33;58.24;102707.84;5072377;28;20070;-72
2021/04/17 06:16:36;;;;;;;15.15;7.97;;;11.90;99.90;;;12.52;57.85;102706.44;5072159;28;20093;-72
2021/04/17 06:19:06;;;;;;;17.33;8.60;;;12.10;99.90;;;12.48;57.69;102688.66;5072104;28;20143;-72
2021/04/17 06:21:35;;;;;;;16.13;8.13;;;12.20;99.90;;;12.68;57.48;102706.69;5072248;28;20086;-72
2021/04/17 06:24:03;;;;;;;17.92;8.40;;;12.30;99.90;;;12.89;57.29;102705.25;5072275;28;20044;-72
2021/04/17 06:26:32;;;;;;;13.63;7.80;;;12.50;99.90;;;12.25;56.77;102582.09;5072066;28;20499;-72
2021/04/17 06:28:59;;;;;;;13.95;7.85;;;12.60;99.90;;;12.96;56.59;102697.41;5071021;28;20135;-72
2021/04/17 06:31:27;;;;;;;15.00;7.35;;;12.60;99.90;;;12.91;56.67;102707.06;5076025;28;20048;-72
2021/04/17 06:33:55;;;;;;;15.07;7.43;;;12.50;99.90;;;12.98;56.20;102703.63;5075819;28;20044;-71
2021/04/17 06:36:22;;;;;;;13.68;7.85;;;12.60;99.90;;;13.09;56.29;102707.38;5075783;28;20063;-72
2021/04/17 06:38:49;;;;;;;16.65;7.50;;;12.70;99.90;;;13.14;55.99;102703.00;5075739;28;20055;-72
2021/04/17 06:41:18;;;;;;;15.93;7.90;;;12.80;99.90;;;13.30;55.51;102710.34;5091222;28;20048;-71
2021/04/17 06:43:49;;;;;;;16.17;7.22;;;13.00;99.90;;;13.49;55.20;102715.03;5074391;28;20561;-72
2021/04/17 06:46:17;;;;;;;12.90;6.82;;;13.10;99.90;;;13.57;54.68;102715.13;5075797;28;20051;-73
2021/04/17 06:48:45;;;;;;;13.25;7.03;;;13.30;99.90;;;13.56;53.80;102719.56;5075559;28;20148;-72
2021/04/17 06:51:16;;;;;;;12.38;6.25;;;13.40;99.90;;;13.68;53.95;102718.84;5075570;28;20056;-72
2021/04/17 06:53:45;;;;;;;11.43;6.15;;;13.40;99.90;;;13.80;52.63;102720.75;5075578;28;20480;-72
2021/04/17 06:56:13;;;;;;;10.35;6.68;;;13.50;99.90;;;13.79;53.24;102711.88;5075328;28;20075;-72
2021/04/17 06:58:42;;;;;;;11.25;5.90;;;13.50;99.90;;;13.95;52.39;102723.59;5075397;28;20057;-72
2021/04/17 07:01:11;;;;;;;12.38;6.25;;;13.70;99.90;;;14.05;52.19;102713.03;5075523;28;20404;-72
2021/04/17 07:03:39;;;;;;;11.95;6.15;;;13.80;99.90;;;14.15;52.14;102716.72;5075360;28;20146;-72
2021/04/17 07:06:07;;;;;;;15.68;6.53;;;13.90;99.90;;;14.11;51.51;102721.09;5075310;28;20183;-72
2021/04/17 07:08:34;;;;;;;9.52;6.00;;;13.80;99.90;;;14.26;50.65;102712.41;5075262;28;20044;-72
2021/04/17 07:11:02;;;;;;;10.13;6.10;;;14.00;99.90;;;13.95;50.20;102627.81;5090699;28;20102;-72
2021/04/17 07:13:29;;;;;;;9.20;5.30;;;14.20;99.90;;;12.57;49.81;102365.84;5074885;28;20040;-73
2021/04/17 07:16:07;;;;;;;8.00;5.07;;;14.30;99.90;;;14.70;49.17;102713.72;5075324;28;20059;-73
2021/04/17 07:18:38;;;;;;;9.73;5.35;;;14.40;99.90;;;14.68;47.72;102715.47;5075089;28;20040;-73
2021/04/17 07:21:27;;;;;;;7.95;5.10;;;14.40;99.90;;;14.60;47.07;102697.63;5075395;28;20090;-73
2021/04/17 07:23:55;;;;;;;11.50;4.95;;;14.40;99.90;;;14.64;46.97;102718.09;5074645;28;20040;-73
2021/04/17 07:26:26;;;;;;;8.70;4.63;;;14.40;99.90;;;14.71;46.95;102715.50;5074806;28;20498;-72
2021/04/17 07:29:05;;;;;;;8.68;4.40;;;14.40;99.90;;;14.70;46.10;102712.81;5075125;28;20052;-73
2021/04/17 07:31:34;;;;;;;7.47;4.38;;;14.40;99.90;;;14.87;46.72;102714.75;5074872;28;20041;-72
2021/04/17 07:34:17;;;;;;;7.20;4.82;;;14.60;99.90;;;14.88;44.93;102692.56;5074729;28;20115;-73
2021/04/17 07:36:52;;;;;;;7.53;4.60;;;14.80;99.90;;;14.87;43.51;102714.75;5073729;28;20465;-73
2021/04/17 07:39:35;;;;;;;7.65;4.80;;;14.60;99.90;;;14.88;44.08;102708.56;5074814;28;20052;-73
2021/04/17 07:42:08;;;;;;;7.85;4.80;;;14.60;99.90;;;15.07;44.90;102714.91;5073936;28;20110;-73
2021/04/17 07:44:40;;;;;;;12.32;4.97;;;14.80;99.90;;;15.06;43.26;102714.00;5074516;28;20063;-72
2021/04/17 07:47:09;;;;;;;5.95;4.13;;;14.90;99.90;;;15.10;42.72;102707.81;5074577;28;20048;-73
2021/04/17 07:49:39;;;;;;;8.15;4.15;;;14.80;99.90;;;14.43;42.48;102621.19;5074634;28;20052;-70
2021/04/17 07:52:11;;;;;;;7.32;4.30;;;14.80;99.90;;;15.12;41.35;102714.03;5074629;28;20052;-73
2021/04/17 07:54:39;;;;;;;5.50;4.15;;;14.90;99.90;;;15.22;40.17;102707.00;5074495;28;20048;-73
2021/04/17 07:57:09;;;;;;;5.75;3.92;;;15.00;99.90;;;15.47;40.26;102711.59;5073981;28;20478;-75
2021/04/17 07:59:39;;;;;;;7.90;4.13;;;15.20;99.90;;;15.49;39.37;102708.94;5074529;28;20103;-74
2021/04/17 08:02:07;;;;;;;7.50;4.03;;;15.30;99.90;;;15.46;38.90;102711.59;5074468;28;20085;-74
2021/04/17 08:04:36;;;;;;;7.25;4.10;;;15.40;99.90;;;15.73;38.43;102695.72;5074295;28;20044;-74
2021/04/17 08:07:04;;;;;;;6.60;4.05;;;15.50;99.90;;;15.77;37.46;102719.75;5074039;28;20040;-76
2021/04/17 08:09:31;;;;;;;9.18;4.40;;;15.60;99.90;;;15.83;38.59;102698.41;5073782;28;20528;-82
2021/04/17 08:12:01;;;;;;;4.75;3.83;;;15.70;99.90;;;16.05;38.15;102715.38;5073965;28;20055;-81
2021/04/17 08:14:29;;;;;;;10.65;4.05;;;15.80;99.90;;;16.13;38.41;102710.97;5074162;28;20052;-78
2021/04/17 08:16:57;;;;;;;6.25;4.05;;;15.90;99.90;;;15.79;37.79;102602.34;5072819;28;20045;-75
2021/04/17 08:19:25;;;;;;;6.90;3.83;;;16.10;99.90;;;16.27;37.68;102719.91;5089678;28;20094;-78
2021/04/17 08:21:54;;;;;;;6.45;3.80;;;16.10;99.90;;;16.26;36.44;102718.09;5073826;28;20048;-79
2021/04/17 08:24:24;;;;;;;7.35;4.20;;;16.10;99.90;;;16.26;37.36;102710.09;5073693;28;20051;-82
2021/04/17 08:26:54;;;;;;;6.55;4.30;;;16.10;99.90;;;16.31;38.34;102720.78;5074187;28;20051;-72
2021/04/17 08:29:42;;;;;;;7.97;3.93;;;16.10;99.90;;;16.49;37.97;102712.84;5073937;28;20044;-77
2021/04/17 08:32:33;;;;;;;9.02;4.13;;;16.20;99.90;;;16.48;38.47;102713.69;5072453;28;20052;-81
2021/04/17 08:35:06;;;;;;;;;;;16.30;99.90;;;16.38;37.93;102715.47;5073854;28;20057;-81
2021/04/17 08:37:38;;;;;;;6.57;3.90;;;16.30;99.90;;;16.55;37.94;102710.19;5072398;28;19932;-82
2021/04/17 08:40:07;;;;;;;5.85;3.72;;;16.40;99.90;;;16.62;37.22;102712.84;5073599;28;20051;-77
2021/04/17 08:42:42;;;;;;;11.05;4.65;;;16.50;99.90;;;16.67;37.15;102715.50;5073341;28;20033;-70
2021/04/17 08:45:14;;;;;;;8.00;4.25;;;16.50;99.90;;;16.79;36.25;102713.75;5073280;28;20044;-69
2021/04/17 08:47:51;;;;;;;4.55;3.78;;;16.60;99.90;;;16.86;35.47;102711.97;5073321;28;20048;-69
2021/04/17 08:50:29;;;;;;;6.18;3.63;;;16.60;99.90;;;16.97;34.91;102724.44;5073321;28;20119;-69
2021/04/17 08:53:01;;;;;;;6.90;3.70;;;16.70;99.90;;;16.97;33.86;102718.19;5070908;28;20491;-72
2021/04/17 08:55:49;;;;;;;5.07;4.15;;;16.80;99.90;;;17.09;34.71;102719.03;5073199;28;20056;-69
2021/04/17 08:58:19;;;;;;;6.60;4.32;;;16.90;99.90;;;17.13;34.56;102710.13;5088371;28;20143;-69
2021/04/17 09:01:09;;;;;;;6.60;4.20;;;17.00;99.90;;;17.15;33.78;102703.00;5088916;28;20120;-70
2021/04/17 09:03:44;;;;;;;14.05;9.13;;;17.00;99.90;;;17.21;33.79;102706.56;5088645;28;20049;-71
2021/04/17 09:06:43;;;;;;;5.93;3.90;;;17.00;99.90;;;17.23;34.70;102702.09;5088528;28;20052;-73
2021/04/17 09:09:34;;;;;;;5.55;3.58;;;17.00;99.90;;;17.19;34.75;102697.66;5073145;28;20052;-71
2021/04/17 09:12:22;;;;;;;4.57;3.85;;;17.00;99.90;;;17.18;35.04;102688.72;5072975;28;20056;-71
2021/04/17 09:14:56;;;;;;;8.13;4.53;;;17.10;99.90;;;17.23;35.42;102702.97;5071781;28;20056;-71
2021/04/17 09:17:50;;;;;;;6.93;4.28;;;17.10;99.90;;;17.25;35.16;102706.53;5072717;28;20124;-70
2021/04/17 09:20:39;;;;;;;5.03;3.70;;;17.10;99.90;;;17.37;34.57;102709.19;5071488;28;20053;-69
2021/04/17 09:23:07;;;;;;;7.85;3.88;;;17.20;99.90;;;17.07;34.63;102695.91;5071596;28;20487;-67
2021/04/17 09:25:44;;;;;;;8.40;4.40;;;17.00;99.90;;;16.83;34.66;102674.53;5072553;28;20036;-67
2021/04/17 09:28:14;;;;;;;5.88;3.60;;;17.00;99.90;;;16.83;36.10;102695.91;5072699;28;20101;-67
2021/04/17 09:30:43;;;;;;;10.70;4.13;;;16.70;99.90;;;16.68;36.11;102683.47;5072600;28;20110;-66
2021/04/17 09:33:14;;;;;;;7.03;4.20;;;16.60;99.90;;;16.50;36.89;102691.47;5072310;28;20476;-67
2021/04/17 09:35:42;;;;;;;6.28;3.47;;;16.40;99.90;;;16.68;37.16;102687.91;5072332;28;20105;-66
2021/04/17 09:38:13;;;;;;;5.60;4.28;;;16.50;99.90;;;16.96;37.36;102697.66;5088021;28;20040;-67
2021/04/17 09:40:46;;;;;;;8.43;4.55;;;16.70;99.90;;;16.81;35.25;102666.50;5072511;28;20052;-67
2021/04/17 09:43:27;;;;;;;7.78;4.18;;;16.70;99.90;;;16.94;35.53;102695.00;5072479;28;20048;-67
2021/04/17 09:45:57;;;;;;;8.20;4.80;;;16.70;99.90;;;16.96;36.03;102697.66;5072310;28;20074;-67
2021/04/17 09:48:25;;;;;;;6.90;4.60;;;16.80;99.90;;;16.73;36.86;102686.13;5072533;28;20403;-67
2021/04/17 09:50:56;;;;;;;11.95;4.65;;;16.60;99.90;;;16.43;36.39;102678.06;5072304;28;20080;-67
2021/04/17 09:53:29;;;;;;;10.52;6.80;;;16.50;99.90;;;16.31;38.15;102681.63;5072499;28;20045;-66
2021/04/17 09:56:01;;;;;;;9.70;6.18;;;16.10;99.90;;;16.67;38.66;102668.31;5072465;28;20044;-66
2021/04/17 09:58:35;;;;;;;9.93;5.47;;;16.40;99.90;;;16.91;38.61;102670.97;5072528;28;20113;-67
2021/04/17 10:01:10;;;;;;;7.47;4.82;;;16.60;99.90;;;16.90;38.57;102666.50;5072225;28;20067;-67
2021/04/17 10:03:41;;;;;;;20.65;7.35;;;16.70;99.90;;;16.45;38.28;102618.41;5072231;28;20045;-66
2021/04/17 10:06:32;;;;;;;10.60;4.85;;;16.50;99.90;;;16.53;41.21;102640.69;5076157;28;20052;-67
2021/04/17 10:09:15;;;;;;;9.35;5.65;;;16.30;99.90;;;16.88;40.89;102649.56;5075267;28;20098;-67
2021/04/17 10:11:44;;;;;;;8.70;4.53;;;16.60;99.90;;;16.20;41.92;102646.88;5076651;28;20053;-67
2021/04/17 10:14:14;;;;;;;6.88;5.15;;;16.00;99.90;;;15.70;42.21;102549.84;5091845;28;20052;-67
2021/04/17 10:16:44;;;;;;;12.15;5.25;;;16.10;99.90;;;15.80;42.36;102554.31;5076223;28;20072;-66
2021/04/17 10:19:14;;;;;;;8.23;5.10;;;16.10;99.90;;;16.18;42.02;102629.09;5076241;28;20491;-67
2021/04/17 10:21:45;;;;;;;8.38;5.30;;;16.00;99.90;;;16.60;41.86;102634.47;5076096;28;20467;-66
2021/04/17 10:24:26;;;;;;;;;;;16.30;99.90;;;16.90;40.43;102637.09;5076553;28;20403;-67
2021/04/17 10:26:59;;;;;;;13.98;5.78;;;16.70;99.90;;;16.89;39.86;102621.06;5076233;28;19924;-66
2021/04/17 10:29:40;;;;;;;9.82;5.47;;;16.70;99.90;;;16.83;40.29;102624.63;5075921;28;20122;-67